createdAt,value
2023-04-25T00:00:12.484Z,7.93
2023-04-25T00:01:44.041Z,8.01
2023-04-25T00:03:16.045Z,8.01
2023-04-25T00:04:50.604Z,7.94
2023-04-25T00:06:22.402Z,7.94
2023-04-25T00:07:54.291Z,7.98
2023-04-25T00:09:26.331Z,8.08
2023-04-25T00:10:58.900Z,8.12
2023-04-25T00:12:30.606Z,8.06
2023-04-25T00:14:03.480Z,8.09
2023-04-25T00:15:37.032Z,8.04
2023-04-25T00:17:08.926Z,7.92
2023-04-25T00:18:40.750Z,7.91
2023-04-25T00:20:12.904Z,7.95
2023-04-25T00:21:47.220Z,8.00
2023-04-25T00:23:19.341Z,7.98
2023-04-25T00:24:51.489Z,8.04
2023-04-25T00:26:23.124Z,8.06
2023-04-25T00:27:54.701Z,8.12
2023-04-25T00:29:26.304Z,8.02
2023-04-25T00:30:57.847Z,8.05
2023-04-25T00:32:29.477Z,8.14
2023-04-25T00:34:02.520Z,8.19
2023-04-25T00:35:34.825Z,8.21
2023-04-25T00:37:07.016Z,8.18
2023-04-25T00:38:39.352Z,8.32
2023-04-25T00:40:11.297Z,8.31
2023-04-25T00:41:43.797Z,8.18
2023-04-25T00:43:15.339Z,8.11
2023-04-25T00:44:47.876Z,8.14
2023-04-25T00:46:19.546Z,8.26
2023-04-25T00:47:51.242Z,8.28
2023-04-25T00:49:22.916Z,8.26
2023-04-25T00:50:57.639Z,8.28
2023-04-25T00:52:29.453Z,8.17
2023-04-25T00:54:02.443Z,8.17
2023-04-25T00:55:35.840Z,8.13
2023-04-25T00:57:08.045Z,8.07
2023-04-25T00:58:40.723Z,8.05
2023-04-25T01:00:14.409Z,7.99
2023-04-25T01:01:46.205Z,7.95
2023-04-25T01:03:20.833Z,7.71
2023-04-25T01:04:52.773Z,7.71
2023-04-25T01:06:24.545Z,7.78
2023-04-25T01:07:56.650Z,7.87
2023-04-25T01:09:28.849Z,7.89
2023-04-25T01:11:00.502Z,7.97
2023-04-25T01:12:32.369Z,8.04
2023-04-25T01:14:04.008Z,7.99
2023-04-25T01:15:36.934Z,7.94
2023-04-25T01:17:10.091Z,7.90
2023-04-25T01:18:43.593Z,7.85
2023-04-25T01:20:15.406Z,7.82
2023-04-25T01:21:47.504Z,7.74
2023-04-25T01:23:21.792Z,7.73
2023-04-25T01:24:54.149Z,7.71
2023-04-25T01:26:26.127Z,7.81
2023-04-25T01:27:58.813Z,7.85
2023-04-25T01:29:31.984Z,7.92
2023-04-25T01:31:04.168Z,7.88
2023-04-25T01:32:39.540Z,7.81
2023-04-25T01:34:12.643Z,7.93
2023-04-25T01:35:44.445Z,8.02
2023-04-25T01:37:17.755Z,7.72
2023-04-25T01:38:50.787Z,7.58
2023-04-25T01:40:23.795Z,7.63
2023-04-25T01:41:57.486Z,7.75
2023-04-25T01:43:29.706Z,7.58
2023-04-25T01:45:02.194Z,7.62
2023-04-25T01:46:35.227Z,7.72
2023-04-25T01:48:07.003Z,7.79
2023-04-25T01:49:38.669Z,7.88
2023-04-25T01:51:12.541Z,7.99
2023-04-25T01:52:44.671Z,7.85
2023-04-25T01:54:18.247Z,7.84
2023-04-25T01:55:51.398Z,7.87
2023-04-25T01:57:25.718Z,7.89
2023-04-25T01:58:58.161Z,7.77
2023-04-25T02:00:48.100Z,7.73
2023-04-25T02:02:19.773Z,7.69
2023-04-25T02:03:51.807Z,7.73
2023-04-25T02:05:39.166Z,7.67
2023-04-25T02:07:12.978Z,7.68
2023-04-25T02:08:53.072Z,7.56
2023-04-25T02:10:24.668Z,7.70
2023-04-25T02:12:07.035Z,7.72
2023-04-25T02:13:43.025Z,7.67
2023-04-25T02:15:29.552Z,7.60
2023-04-25T02:17:04.522Z,7.69
2023-04-25T02:18:38.444Z,7.71
2023-04-25T02:20:12.385Z,7.75
2023-04-25T02:21:44.898Z,7.66
2023-04-25T02:23:16.558Z,7.52
2023-04-25T02:24:48.224Z,7.51
2023-04-25T02:26:20.012Z,7.47
2023-04-25T02:27:52.746Z,7.46
2023-04-25T02:29:24.395Z,7.44
2023-04-25T02:30:56.045Z,7.42
2023-04-25T02:32:29.475Z,7.44
2023-04-25T02:34:01.171Z,7.45
2023-04-25T02:35:33.089Z,7.39
2023-04-25T02:37:04.763Z,7.40
2023-04-25T02:38:36.425Z,7.29
2023-04-25T02:40:09.779Z,7.27
2023-04-25T02:41:41.354Z,7.20
2023-04-25T02:43:12.903Z,7.21
2023-04-25T02:44:44.459Z,7.31
2023-04-25T02:46:19.190Z,7.38
2023-04-25T02:47:57.304Z,7.43
2023-04-25T02:49:28.983Z,7.40
2023-04-25T02:51:00.709Z,7.32
2023-04-25T02:52:32.736Z,7.32
2023-04-25T02:54:13.590Z,7.30
2023-04-25T02:55:48.972Z,7.26
2023-04-25T02:57:20.574Z,7.30
2023-04-25T02:58:52.228Z,7.30
2023-04-25T03:00:23.839Z,7.30
2023-04-25T03:01:55.786Z,7.33
2023-04-25T03:03:27.684Z,7.38
2023-04-25T03:04:59.409Z,7.38
2023-04-25T03:06:31.818Z,7.33
2023-04-25T03:08:03.901Z,7.27
2023-04-25T03:09:37.221Z,7.13
2023-04-25T03:11:08.859Z,7.20
2023-04-25T03:12:40.599Z,7.28
2023-04-25T03:14:12.964Z,7.34
2023-04-25T03:15:44.816Z,7.41
2023-04-25T03:17:16.997Z,7.37
2023-04-25T03:18:48.596Z,7.43
2023-04-25T03:20:20.331Z,7.33
2023-04-25T03:21:52.720Z,7.31
2023-04-25T03:23:24.529Z,7.17
2023-04-25T03:24:56.253Z,7.24
2023-04-25T03:26:27.857Z,7.40
2023-04-25T03:27:59.437Z,7.35
2023-04-25T03:29:31.072Z,7.28
2023-04-25T03:31:04.856Z,7.25
2023-04-25T03:32:36.405Z,7.31
2023-04-25T03:34:08.054Z,7.34
2023-04-25T03:35:39.664Z,7.50
2023-04-25T03:37:11.658Z,7.35
2023-04-25T03:38:43.883Z,7.34
2023-04-25T03:40:18.114Z,7.29
2023-04-25T03:42:18.720Z,7.33
2023-04-25T03:43:50.521Z,7.26
2023-04-25T03:45:22.595Z,7.30
2023-04-25T03:46:54.197Z,7.36
2023-04-25T03:48:27.299Z,7.28
2023-04-25T03:49:59.341Z,7.31
2023-04-25T03:51:31.949Z,7.30
2023-04-25T03:53:03.547Z,7.28
2023-04-25T03:54:45.278Z,7.22
2023-04-25T03:56:21.446Z,7.23
2023-04-25T03:57:59.555Z,7.13
2023-04-25T03:59:31.358Z,7.17
2023-04-25T04:01:08.647Z,7.12
2023-04-25T04:02:45.184Z,7.05
2023-04-25T04:04:17.473Z,6.94
2023-04-25T04:05:49.924Z,6.83
2023-04-25T04:07:23.157Z,6.79
2023-04-25T04:08:58.746Z,6.85
2023-04-25T04:10:30.383Z,6.87
2023-04-25T04:12:02.833Z,6.85
2023-04-25T04:13:36.155Z,6.83
2023-04-25T04:15:08.475Z,6.92
2023-04-25T04:16:40.645Z,6.82
2023-04-25T04:18:12.282Z,6.81
2023-04-25T04:19:44.646Z,6.90
2023-04-25T04:21:20.218Z,6.97
2023-04-25T04:22:51.807Z,6.94
2023-04-25T04:24:24.941Z,6.98
2023-04-25T04:26:02.120Z,6.89
2023-04-25T04:28:00.346Z,6.84
2023-04-25T04:29:51.283Z,6.77
2023-04-25T04:31:36.900Z,6.78
2023-04-25T04:33:10.300Z,6.68
2023-04-25T04:34:42.611Z,6.73
2023-04-25T04:36:15.163Z,6.78
2023-04-25T04:37:46.908Z,6.78
2023-04-25T04:39:19.360Z,6.73
2023-04-25T04:41:05.223Z,6.74
2023-04-25T04:42:51.723Z,6.75
2023-04-25T04:44:37.814Z,6.56
2023-04-25T04:46:23.395Z,6.73
2023-04-25T04:48:15.538Z,6.74
2023-04-25T04:50:15.990Z,6.82
2023-04-25T04:52:16.706Z,6.88
2023-04-25T04:54:07.225Z,6.85
2023-04-25T04:55:57.613Z,6.73
2023-04-25T04:57:39.588Z,6.91
2023-04-25T04:59:38.941Z,6.95
2023-04-25T05:01:36.704Z,7.05
2023-04-25T05:03:22.984Z,7.01
2023-04-25T05:05:16.251Z,6.97
2023-04-25T05:07:03.479Z,7.00
2023-04-25T05:08:56.999Z,7.03
2023-04-25T05:10:51.698Z,7.02
2023-04-25T05:12:31.460Z,7.10
2023-04-25T05:14:24.263Z,6.95
2023-04-25T05:16:28.415Z,6.94
2023-04-25T05:18:29.497Z,6.80
2023-04-25T05:20:30.449Z,6.96
2023-04-25T05:22:02.642Z,7.02
2023-04-25T05:23:40.291Z,7.00
2023-04-25T05:25:37.845Z,7.10
2023-04-25T05:27:29.701Z,7.16
2023-04-25T05:29:13.582Z,7.17
2023-04-25T05:31:03.702Z,7.21
2023-04-25T05:32:43.849Z,7.29
2023-04-25T05:34:16.254Z,7.28
2023-04-25T05:36:09.085Z,7.34
2023-04-25T05:37:40.932Z,7.40
2023-04-25T05:39:18.439Z,7.50
2023-04-25T05:41:08.540Z,7.61
2023-04-25T05:43:00.410Z,7.67
2023-04-25T05:44:46.244Z,7.69
2023-04-25T05:46:53.147Z,7.70
2023-04-25T05:48:56.865Z,7.84
2023-04-25T05:51:00.897Z,7.79
2023-04-25T05:52:51.204Z,7.99
2023-04-25T05:54:29.982Z,8.03
2023-04-25T05:56:02.539Z,8.01
2023-04-25T05:57:34.740Z,8.03
2023-04-25T05:59:07.539Z,7.84
2023-04-25T06:00:40.386Z,8.07
2023-04-25T06:02:12.543Z,8.35
2023-04-25T06:03:44.517Z,8.46
2023-04-25T06:05:16.642Z,8.48
2023-04-25T06:06:48.426Z,8.39
2023-04-25T06:08:20.877Z,8.22
2023-04-25T06:09:52.685Z,8.24
2023-04-25T06:11:24.290Z,8.10
2023-04-25T06:12:55.837Z,7.91
2023-04-25T06:14:29.662Z,7.91
2023-04-25T06:16:01.574Z,8.00
2023-04-25T06:17:34.293Z,7.93
2023-04-25T06:19:06.563Z,7.94
2023-04-25T06:20:38.451Z,8.08
2023-04-25T06:22:11.255Z,8.10
2023-04-25T06:23:45.455Z,8.13
2023-04-25T06:25:23.765Z,8.13
2023-04-25T06:26:56.648Z,8.26
2023-04-25T06:28:28.362Z,8.07
2023-04-25T06:30:00.068Z,7.86
2023-04-25T06:31:34.009Z,7.88
2023-04-25T06:33:06.183Z,7.90
2023-04-25T06:34:38.230Z,7.82
2023-04-25T06:36:11.290Z,7.88
2023-04-25T06:37:43.868Z,8.03
2023-04-25T06:39:15.534Z,8.02
2023-04-25T06:40:47.106Z,8.06
2023-04-25T06:42:18.865Z,8.13
2023-04-25T06:44:13.449Z,8.10
2023-04-25T06:45:53.989Z,7.98
2023-04-25T06:47:27.204Z,8.02
2023-04-25T06:48:58.905Z,8.18
2023-04-25T06:50:30.566Z,8.16
2023-04-25T06:52:02.145Z,8.26
2023-04-25T06:53:33.763Z,8.36
2023-04-25T06:55:08.582Z,8.22
2023-04-25T06:56:58.720Z,8.31
2023-04-25T06:58:32.313Z,8.32
2023-04-25T07:00:31.518Z,8.33
2023-04-25T07:02:05.284Z,8.32
2023-04-25T07:03:38.565Z,8.26
2023-04-25T07:05:14.721Z,8.10
2023-04-25T07:06:48.423Z,8.12
2023-04-25T07:08:22.357Z,7.88
2023-04-25T07:09:53.996Z,7.88
2023-04-25T07:11:26.866Z,7.95
2023-04-25T07:12:58.478Z,7.99
2023-04-25T07:14:30.310Z,8.04
2023-04-25T07:16:02.895Z,8.04
2023-04-25T07:17:35.932Z,8.13
2023-04-25T07:19:07.659Z,8.23
2023-04-25T07:20:39.359Z,8.31
2023-04-25T07:22:12.246Z,8.10
2023-04-25T07:23:46.630Z,8.02
2023-04-25T07:25:22.352Z,8.16
2023-04-25T07:26:54.462Z,8.11
2023-04-25T07:28:35.849Z,8.02
2023-04-25T07:30:08.206Z,7.94
2023-04-25T07:31:40.864Z,7.91
2023-04-25T07:33:12.559Z,7.80
2023-04-25T07:34:45.051Z,7.97
2023-04-25T07:36:16.608Z,7.96
2023-04-25T07:37:49.405Z,7.76
2023-04-25T07:39:24.377Z,7.82
2023-04-25T07:40:56.331Z,7.61
2023-04-25T07:42:28.067Z,7.61
2023-04-25T07:43:59.829Z,7.50
2023-04-25T07:45:31.597Z,7.74
2023-04-25T07:47:04.498Z,7.83
2023-04-25T07:48:36.880Z,7.95
2023-04-25T07:50:12.101Z,7.71
2023-04-25T07:51:46.790Z,7.65
2023-04-25T07:53:21.376Z,7.60
2023-04-25T07:55:05.300Z,7.52
2023-04-25T07:56:52.890Z,7.65
2023-04-25T07:58:27.156Z,7.66
2023-04-25T08:00:03.684Z,7.66
2023-04-25T08:01:45.276Z,7.73
2023-04-25T08:03:18.372Z,7.66
2023-04-25T08:04:50.746Z,7.69
2023-04-25T08:06:23.735Z,7.87
2023-04-25T08:08:21.719Z,7.90
2023-04-25T08:09:53.541Z,7.94
2023-04-25T08:11:30.392Z,7.67
2023-04-25T08:13:02.385Z,7.59
2023-04-25T08:14:37.132Z,7.74
2023-04-25T08:16:10.146Z,7.77
2023-04-25T08:17:42.024Z,7.89
2023-04-25T08:19:13.815Z,7.93
2023-04-25T08:20:46.141Z,7.95
2023-04-25T08:22:19.703Z,7.64
2023-04-25T08:23:59.819Z,7.65
2023-04-25T08:25:34.885Z,7.82
2023-04-25T08:27:08.554Z,7.85
2023-04-25T08:28:40.635Z,7.89
2023-04-25T08:30:12.968Z,7.90
2023-04-25T08:31:46.583Z,7.99
2023-04-25T08:33:19.197Z,7.95
2023-04-25T08:35:07.904Z,8.03
2023-04-25T08:36:40.559Z,7.94
2023-04-25T08:38:24.666Z,7.92
2023-04-25T08:39:57.166Z,7.89
2023-04-25T08:41:51.392Z,7.95
2023-04-25T08:43:24.694Z,7.96
2023-04-25T08:44:56.516Z,7.93
2023-04-25T08:46:33.106Z,8.01
2023-04-25T08:48:18.718Z,8.01
2023-04-25T08:49:51.297Z,8.07
2023-04-25T08:51:29.054Z,7.80
2023-04-25T08:53:05.471Z,7.80
2023-04-25T08:54:40.293Z,7.71
2023-04-25T08:56:14.235Z,7.59
2023-04-25T08:57:46.455Z,7.60
2023-04-25T08:59:18.535Z,7.52
2023-04-25T09:00:52.323Z,7.56
2023-04-25T09:02:25.959Z,7.65
2023-04-25T09:03:58.816Z,7.78
2023-04-25T09:05:31.261Z,7.90
2023-04-25T09:07:02.978Z,7.67
2023-04-25T09:08:37.149Z,7.41
2023-04-25T09:10:09.318Z,7.58
2023-04-25T09:11:42.913Z,7.52
2023-04-25T09:13:26.047Z,7.59
2023-04-25T09:15:21.030Z,7.56
2023-04-25T09:17:29.780Z,7.63
2023-04-25T09:19:03.664Z,7.61
2023-04-25T09:20:59.545Z,7.53
2023-04-25T09:22:34.656Z,7.60
2023-04-25T09:24:08.119Z,7.47
2023-04-25T09:25:40.326Z,7.48
2023-04-25T09:27:23.805Z,7.59
2023-04-25T09:29:10.321Z,7.60
2023-04-25T09:30:47.110Z,7.54
2023-04-25T09:32:25.619Z,7.63
2023-04-25T09:34:04.394Z,7.48
2023-04-25T09:35:46.511Z,7.49
2023-04-25T09:37:31.008Z,7.21
2023-04-25T09:39:23.256Z,7.03
2023-04-25T09:41:06.453Z,7.12
2023-04-25T09:42:43.500Z,7.03
2023-04-25T09:44:15.558Z,6.95
2023-04-25T09:45:50.426Z,6.94
2023-04-25T09:47:24.845Z,7.04
2023-04-25T09:48:56.512Z,7.22
2023-04-25T09:50:34.814Z,6.86
2023-04-25T09:52:18.884Z,6.80
2023-04-25T09:54:00.561Z,6.91
2023-04-25T09:55:43.972Z,6.60
2023-04-25T09:57:18.033Z,6.76
2023-04-25T09:58:54.786Z,6.78
2023-04-25T10:00:27.081Z,6.97
2023-04-25T10:01:59.845Z,6.96
2023-04-25T10:03:41.273Z,6.92
2023-04-25T10:05:36.717Z,6.71
2023-04-25T10:07:09.367Z,6.61
2023-04-25T10:08:42.651Z,6.62
2023-04-25T10:10:14.722Z,6.73
2023-04-25T10:11:49.011Z,6.57
2023-04-25T10:13:20.884Z,6.57
2023-04-25T10:14:53.595Z,6.48
2023-04-25T10:16:26.203Z,6.05
2023-04-25T10:17:58.207Z,6.28
2023-04-25T10:19:30.679Z,6.14
2023-04-25T10:21:05.659Z,6.04
2023-04-25T10:22:41.319Z,6.16
2023-04-25T10:24:13.819Z,6.05
2023-04-25T10:25:46.024Z,5.63
2023-04-25T10:27:18.289Z,5.75
2023-04-25T10:29:01.901Z,5.91
2023-04-25T10:30:33.691Z,6.00
2023-04-25T10:32:05.852Z,6.21
2023-04-25T10:33:38.510Z,6.43
2023-04-25T10:35:17.295Z,6.37
2023-04-25T10:36:53.617Z,6.48
2023-04-25T10:38:27.064Z,6.60
2023-04-25T10:39:58.745Z,6.66
2023-04-25T10:41:31.007Z,6.21
2023-04-25T10:43:31.896Z,6.32
2023-04-25T10:45:06.743Z,6.63
2023-04-25T10:46:39.041Z,6.84
2023-04-25T10:48:29.418Z,6.80
2023-04-25T10:50:06.939Z,6.51
2023-04-25T10:51:54.479Z,6.35
2023-04-25T10:53:34.030Z,6.23
2023-04-25T10:55:06.021Z,6.37
2023-04-25T10:56:40.726Z,6.52
2023-04-25T10:58:12.610Z,6.99
2023-04-25T10:59:44.380Z,6.99
2023-04-25T11:01:21.103Z,6.51
2023-04-25T11:02:54.948Z,6.45
2023-04-25T11:04:37.156Z,6.18
2023-04-25T11:06:20.148Z,6.40
2023-04-25T11:08:03.791Z,6.30
2023-04-25T11:09:42.300Z,6.19
2023-04-25T11:11:14.085Z,6.29
2023-04-25T11:12:47.614Z,6.49
2023-04-25T11:14:21.069Z,6.27
2023-04-25T11:16:03.142Z,6.42
2023-04-25T11:17:45.892Z,6.44
2023-04-25T11:19:17.625Z,6.57
2023-04-25T11:20:49.534Z,6.60
2023-04-25T11:22:22.440Z,6.73
2023-04-25T11:23:55.652Z,6.61
2023-04-25T11:25:27.354Z,6.76
2023-04-25T11:27:00.088Z,6.41
2023-04-25T11:28:31.929Z,6.31
2023-04-25T11:30:22.714Z,6.56
2023-04-25T11:31:58.870Z,6.95
2023-04-25T11:33:30.978Z,6.58
2023-04-25T11:35:02.714Z,6.41
2023-04-25T11:36:34.342Z,6.75
2023-04-25T11:38:06.439Z,6.85
2023-04-25T11:39:38.374Z,7.13
2023-04-25T11:41:10.045Z,7.38
2023-04-25T11:42:45.928Z,7.36
2023-04-25T11:44:19.171Z,7.34
2023-04-25T11:45:53.911Z,7.58
2023-04-25T11:47:31.023Z,7.71
2023-04-25T11:49:03.448Z,7.67
2023-04-25T11:50:36.280Z,7.89
2023-04-25T11:52:08.507Z,8.10
2023-04-25T11:53:43.796Z,7.94
2023-04-25T11:55:15.445Z,7.98
2023-04-25T11:56:47.356Z,7.89
2023-04-25T11:58:20.591Z,7.82
2023-04-25T11:59:52.342Z,7.83
2023-04-25T12:01:35.373Z,8.05
2023-04-25T12:03:10.976Z,8.09
2023-04-25T12:04:43.075Z,8.08
2023-04-25T12:06:18.812Z,8.27
2023-04-25T12:07:51.870Z,8.12
2023-04-25T12:09:34.913Z,8.32
2023-04-25T12:11:21.135Z,8.30
2023-04-25T12:12:52.990Z,7.84
2023-04-25T12:14:27.845Z,7.51
2023-04-25T12:16:01.537Z,7.65
2023-04-25T12:17:34.446Z,7.76
2023-04-25T12:19:06.141Z,7.95
2023-04-25T12:20:38.493Z,8.03
2023-04-25T12:22:37.708Z,7.76
2023-04-25T12:24:26.831Z,7.74
2023-04-25T12:25:58.968Z,7.96
2023-04-25T12:27:32.593Z,8.06
2023-04-25T12:29:16.782Z,8.15
2023-04-25T12:30:54.586Z,7.99
2023-04-25T12:32:27.376Z,8.00
2023-04-25T12:33:59.091Z,8.01
2023-04-25T12:35:31.895Z,8.08
2023-04-25T12:37:04.790Z,8.03
2023-04-25T12:38:39.949Z,7.94
2023-04-25T12:40:11.850Z,7.57
2023-04-25T12:41:44.410Z,7.70
2023-04-25T12:43:16.090Z,7.89
2023-04-25T12:44:47.726Z,7.93
2023-04-25T12:46:19.467Z,8.06
2023-04-25T12:47:51.343Z,8.40
2023-04-25T12:49:23.469Z,8.64
2023-04-25T12:50:55.273Z,8.80
2023-04-25T12:53:58.579Z,8.45
2023-04-25T12:55:30.668Z,8.54
2023-04-25T12:57:03.923Z,8.63
2023-04-25T12:58:35.797Z,9.10
2023-04-25T13:00:15.676Z,9.28
2023-04-25T13:01:47.677Z,9.50
2023-04-25T13:03:19.883Z,9.55
2023-04-25T13:04:52.568Z,8.63
2023-04-25T13:06:24.237Z,8.99
2023-04-25T13:07:55.875Z,8.94
2023-04-25T13:09:27.449Z,8.92
2023-04-25T13:10:59.205Z,8.90
2023-04-25T13:12:31.595Z,8.75
2023-04-25T13:14:03.420Z,8.80
2023-04-25T13:15:35.297Z,8.76
2023-04-25T13:17:07.088Z,8.87
2023-04-25T13:18:38.905Z,8.76
2023-04-25T13:20:11.170Z,8.68
2023-04-25T13:21:45.012Z,8.38
2023-04-25T13:23:16.716Z,8.71
2023-04-25T13:24:48.495Z,8.88
2023-04-25T13:26:20.703Z,8.98
2023-04-25T13:27:53.493Z,8.71
2023-04-25T13:29:25.071Z,9.32
2023-04-25T13:30:57.086Z,9.80
2023-04-25T13:32:28.772Z,9.79
2023-04-25T13:34:00.587Z,10.31
2023-04-25T13:35:32.416Z,11.12
2023-04-25T13:37:04.360Z,10.68
2023-04-25T13:38:36.619Z,10.32
2023-04-25T13:40:12.186Z,10.95
2023-04-25T13:41:45.214Z,10.15
2023-04-25T13:43:17.420Z,10.49
2023-04-25T13:44:50.478Z,11.50
2023-04-25T13:46:40.993Z,12.10
2023-04-25T13:48:15.711Z,12.09
2023-04-25T13:49:47.954Z,11.60
2023-04-25T13:51:20.963Z,11.49
2023-04-25T13:52:53.605Z,11.58
2023-04-25T13:54:26.626Z,11.18
2023-04-25T13:55:58.508Z,11.62
2023-04-25T13:57:39.373Z,11.54
2023-04-25T13:59:14.456Z,10.94
2023-04-25T14:00:48.375Z,10.58
2023-04-25T14:02:21.671Z,10.36
2023-04-25T14:03:54.916Z,10.35
2023-04-25T14:05:27.632Z,10.93
2023-04-25T14:06:59.992Z,11.31
2023-04-25T14:08:35.132Z,11.48
2023-04-25T14:10:08.259Z,11.21
2023-04-25T14:11:41.945Z,11.12
2023-04-25T14:13:14.520Z,11.13
2023-04-25T14:14:47.294Z,11.23
2023-04-25T14:16:21.586Z,11.35
2023-04-25T14:17:54.723Z,11.66
2023-04-25T14:19:27.422Z,11.81
2023-04-25T14:21:00.338Z,11.67
2023-04-25T14:22:33.286Z,11.52
2023-04-25T14:24:06.605Z,11.38
2023-04-25T14:25:39.270Z,11.20
2023-04-25T14:27:13.199Z,10.94
2023-04-25T14:28:46.051Z,10.72
2023-04-25T14:30:20.520Z,10.42
2023-04-25T14:31:53.013Z,10.32
2023-04-25T14:33:27.086Z,10.23
2023-04-25T14:35:00.210Z,9.85
2023-04-25T14:36:33.555Z,10.04
2023-04-25T14:38:07.400Z,9.93
2023-04-25T14:39:40.011Z,9.90
2023-04-25T14:41:13.731Z,10.15
2023-04-25T14:42:47.168Z,10.84
2023-04-25T14:44:20.194Z,10.23
2023-04-25T14:45:53.284Z,10.03
2023-04-25T14:47:26.624Z,10.16
2023-04-25T14:49:00.091Z,10.18
2023-04-25T14:50:34.170Z,10.38
2023-04-25T14:52:07.251Z,10.31
2023-04-25T14:53:41.833Z,10.00
2023-04-25T14:55:16.166Z,9.93
2023-04-25T14:56:49.547Z,9.60
2023-04-25T14:58:22.977Z,9.39
2023-04-25T14:59:56.211Z,9.35
2023-04-25T15:01:29.343Z,9.27
2023-04-25T15:03:03.614Z,9.37
2023-04-25T15:04:37.602Z,9.37
2023-04-25T15:06:11.034Z,9.38
2023-04-25T15:07:44.449Z,9.55
2023-04-25T15:09:19.311Z,9.64
2023-04-25T15:10:53.017Z,9.79
2023-04-25T15:12:27.928Z,9.89
2023-04-25T15:14:00.876Z,10.10
2023-04-25T15:15:33.765Z,10.28
2023-04-25T15:17:08.117Z,10.48
2023-04-25T15:18:41.375Z,10.69
2023-04-25T15:20:16.179Z,10.75
2023-04-25T15:21:49.593Z,10.57
2023-04-25T15:23:23.089Z,10.36
2023-04-25T15:24:57.983Z,10.45
2023-04-25T15:26:31.203Z,10.41
2023-04-25T15:28:04.799Z,10.48
2023-04-25T15:29:38.054Z,10.58
2023-04-25T15:31:11.557Z,10.28
2023-04-25T15:32:46.020Z,10.38
2023-04-25T15:34:19.818Z,10.33
2023-04-25T15:35:52.375Z,10.29
2023-04-25T15:37:25.576Z,10.23
2023-04-25T15:38:58.230Z,10.27
2023-04-25T15:40:32.609Z,10.17
2023-04-25T15:42:06.238Z,10.25
2023-04-25T15:43:39.548Z,10.14
2023-04-25T15:45:12.878Z,10.32
2023-04-25T15:46:46.821Z,10.40
2023-04-25T15:48:20.925Z,10.27
2023-04-25T15:49:54.507Z,10.67
2023-04-25T15:51:28.447Z,10.84
2023-04-25T15:53:02.555Z,10.64
2023-04-25T15:54:36.876Z,10.63
2023-04-25T15:56:11.053Z,10.55
2023-04-25T15:57:45.283Z,10.27
2023-04-25T15:59:17.856Z,10.11
2023-04-25T16:00:52.322Z,9.95
2023-04-25T16:02:24.797Z,9.91
2023-04-25T16:03:59.439Z,9.83
2023-04-25T16:05:33.732Z,9.74
2023-04-25T16:07:07.751Z,9.72
2023-04-25T16:08:41.712Z,9.72
2023-04-25T16:10:20.176Z,9.62
2023-04-25T16:11:53.462Z,9.52
2023-04-25T16:13:28.218Z,9.69
2023-04-25T16:15:01.569Z,9.92
2023-04-25T16:16:34.880Z,9.72
2023-04-25T16:18:08.825Z,9.72
2023-04-25T16:19:41.370Z,9.90
2023-04-25T16:21:17.316Z,9.99
2023-04-25T16:22:50.209Z,10.10
2023-04-25T16:24:23.283Z,9.99
2023-04-25T16:25:56.468Z,10.18
2023-04-25T16:27:29.576Z,9.93
2023-04-25T16:29:04.919Z,10.13
2023-04-25T16:30:38.182Z,10.27
2023-04-25T16:32:11.004Z,9.92
2023-04-25T16:33:44.739Z,10.08
2023-04-25T16:35:17.948Z,10.04
2023-04-25T16:36:50.725Z,10.24
2023-04-25T16:38:24.117Z,10.23
2023-04-25T16:39:57.324Z,10.24
2023-04-25T16:41:31.089Z,10.20
2023-04-25T16:43:04.548Z,10.18
2023-04-25T16:44:37.847Z,9.85
2023-04-25T16:46:11.329Z,9.87
2023-04-25T16:47:45.110Z,9.89
2023-04-25T16:49:19.424Z,9.82
2023-04-25T16:50:53.920Z,9.80
2023-04-25T16:52:27.070Z,9.73
2023-04-25T16:54:04.511Z,9.71
2023-04-25T16:55:38.251Z,9.78
2023-04-25T16:57:12.155Z,9.56
2023-04-25T16:58:45.778Z,9.58
2023-04-25T17:00:20.042Z,9.70
2023-04-25T17:01:54.060Z,9.72
2023-04-25T17:03:27.855Z,9.52
2023-04-25T17:05:01.749Z,9.55
2023-04-25T17:06:35.554Z,9.39
2023-04-25T17:08:09.080Z,9.40
2023-04-25T17:09:42.548Z,9.39
2023-04-25T17:11:15.361Z,9.42
2023-04-25T17:12:48.531Z,9.46
2023-04-25T17:14:21.604Z,9.52
2023-04-25T17:15:55.185Z,9.47
2023-04-25T17:17:28.573Z,9.50
2023-04-25T17:19:02.239Z,9.50
2023-04-25T17:20:35.778Z,9.51
2023-04-25T17:22:10.726Z,9.45
2023-04-25T17:23:47.431Z,9.44
2023-04-25T17:25:20.571Z,9.50
2023-04-25T17:26:54.893Z,9.50
2023-04-25T17:28:28.234Z,9.56
2023-04-25T17:30:01.875Z,9.63
2023-04-25T17:31:35.652Z,9.63
2023-04-25T17:33:09.769Z,9.60
2023-04-25T17:34:44.473Z,9.65
2023-04-25T17:36:17.532Z,9.66
2023-04-25T17:37:52.138Z,9.67
2023-04-25T17:39:25.927Z,9.57
2023-04-25T17:41:00.163Z,9.47
2023-04-25T17:42:33.558Z,9.24
2023-04-25T17:44:07.758Z,9.04
2023-04-25T17:45:41.362Z,9.17
2023-04-25T17:47:14.753Z,9.16
2023-04-25T17:48:48.056Z,9.10
2023-04-25T17:50:22.210Z,9.01
2023-04-25T17:51:55.801Z,9.02
2023-04-25T17:53:30.013Z,9.02
2023-04-25T17:55:03.516Z,9.08
2023-04-25T17:56:40.128Z,8.87
2023-04-25T17:58:13.105Z,8.76
2023-04-25T17:59:46.520Z,8.84
2023-04-25T18:01:19.784Z,8.80
2023-04-25T18:02:53.237Z,8.86
2023-04-25T18:04:27.665Z,8.82
2023-04-25T18:06:02.266Z,8.73
2023-04-25T18:07:37.507Z,8.66
2023-04-25T18:09:21.802Z,8.56
2023-04-25T18:10:55.006Z,8.55
2023-04-25T18:12:29.862Z,8.56
2023-04-25T18:14:03.359Z,8.44
2023-04-25T18:15:36.931Z,8.43
2023-04-25T18:17:10.641Z,8.56
2023-04-25T18:18:44.650Z,8.52
2023-04-25T18:20:17.494Z,8.52
2023-04-25T18:21:53.384Z,8.41
2023-04-25T18:23:27.368Z,8.47
2023-04-25T18:25:01.959Z,8.47
2023-04-25T18:26:36.741Z,8.46
2023-04-25T18:28:09.899Z,8.44
2023-04-25T18:29:46.243Z,8.40
2023-04-25T18:31:23.513Z,8.44
2023-04-25T18:32:57.679Z,8.37
2023-04-25T18:34:35.374Z,8.27
2023-04-25T18:36:09.328Z,8.30
2023-04-25T18:37:43.501Z,8.37
2023-04-25T18:39:22.473Z,8.40
2023-04-25T18:41:02.325Z,8.40
2023-04-25T18:42:44.750Z,8.35
2023-04-25T18:44:17.664Z,8.12
2023-04-25T18:45:50.998Z,8.21
2023-04-25T18:47:25.506Z,8.18
2023-04-25T18:48:59.962Z,8.23
2023-04-25T18:50:33.833Z,8.05
2023-04-25T18:52:12.833Z,8.10
2023-04-25T18:53:47.911Z,7.98
2023-04-25T18:55:21.907Z,7.94
2023-04-25T18:56:56.647Z,7.90
2023-04-25T18:58:30.051Z,7.66
2023-04-25T19:00:06.437Z,7.78
2023-04-25T19:01:39.540Z,7.72
2023-04-25T19:03:13.296Z,7.79
2023-04-25T19:04:47.809Z,7.80
2023-04-25T19:06:28.490Z,7.80
2023-04-25T19:08:02.334Z,7.81
2023-04-25T19:09:37.178Z,7.65
2023-04-25T19:11:20.525Z,7.71
2023-04-25T19:12:55.649Z,7.81
2023-04-25T19:14:30.101Z,7.87
2023-04-25T19:16:03.465Z,7.91
2023-04-25T19:17:37.765Z,7.90
2023-04-25T19:19:11.091Z,7.91
2023-04-25T19:20:47.168Z,7.92
2023-04-25T19:22:19.281Z,7.91
2023-04-25T19:23:54.978Z,7.90
2023-04-25T19:25:28.541Z,7.85
2023-04-25T19:27:01.659Z,7.86
2023-04-25T19:28:35.446Z,7.90
2023-04-25T19:30:10.947Z,7.93
2023-04-25T19:31:46.102Z,7.87
2023-04-25T19:33:21.663Z,7.89
2023-04-25T19:34:55.304Z,7.83
2023-04-25T19:36:29.843Z,7.72
2023-04-25T19:38:03.424Z,7.72
2023-04-25T19:39:37.905Z,7.71
2023-04-25T19:41:10.802Z,7.73
2023-04-25T19:42:45.511Z,7.56
2023-04-25T19:44:18.535Z,7.63
2023-04-25T19:45:51.326Z,7.71
2023-04-25T19:47:25.042Z,7.76
2023-04-25T19:48:58.761Z,7.82
2023-04-25T19:50:32.342Z,7.89
2023-04-25T19:52:07.697Z,7.88
2023-04-25T19:53:39.982Z,7.75
2023-04-25T19:55:12.919Z,7.69
2023-04-25T19:56:46.153Z,7.73
2023-04-25T19:58:19.553Z,7.75
2023-04-25T19:59:52.774Z,7.53
2023-04-25T20:01:26.647Z,7.40
2023-04-25T20:02:59.967Z,7.54
2023-04-25T20:04:34.499Z,7.64
2023-04-25T20:06:08.436Z,7.67
2023-04-25T20:07:42.549Z,7.68
2023-04-25T20:09:17.093Z,7.71
2023-04-25T20:10:50.618Z,7.62
2023-04-25T20:12:23.727Z,7.63
2023-04-25T20:13:56.934Z,7.59
2023-04-25T20:15:31.315Z,7.60
2023-04-25T20:17:06.732Z,7.65
2023-04-25T20:18:40.616Z,7.64
2023-04-25T20:20:13.501Z,7.67
2023-04-25T20:21:47.094Z,7.75
2023-04-25T20:23:20.069Z,7.81
2023-04-25T20:24:54.667Z,7.80
2023-04-25T20:26:29.404Z,7.87
2023-04-25T20:28:02.058Z,7.77
2023-04-25T20:29:36.221Z,7.82
2023-04-25T20:31:10.589Z,7.82
2023-04-25T20:32:43.191Z,7.79
2023-04-25T20:34:16.738Z,7.73
2023-04-25T20:35:50.827Z,7.63
2023-04-25T20:37:23.377Z,7.58
2023-04-25T20:38:56.764Z,7.54
2023-04-25T20:40:29.858Z,7.49
2023-04-25T20:42:03.727Z,7.31
2023-04-25T20:43:38.699Z,7.13
2023-04-25T20:45:15.600Z,7.24
2023-04-25T20:46:49.857Z,7.31
2023-04-25T20:48:23.674Z,7.43
2023-04-25T20:49:55.758Z,7.38
2023-04-25T20:51:28.628Z,7.43
2023-04-25T20:53:01.854Z,7.45
2023-04-25T20:54:35.921Z,7.54
2023-04-25T20:56:08.665Z,7.51
2023-04-25T20:57:42.197Z,7.40
2023-04-25T20:59:15.133Z,7.41
2023-04-25T21:00:50.152Z,7.42
2023-04-25T21:02:23.200Z,7.46
2023-04-25T21:03:56.124Z,7.45